createdAt,value
2018-07-06T00:00:04.611Z,7.05
2018-07-06T00:02:43.903Z,8.63
2018-07-06T00:05:23.047Z,8.15
2018-07-06T00:08:03.182Z,8.65
2018-07-06T00:10:42.296Z,9.13
2018-07-06T00:13:21.381Z,9.98
2018-07-06T00:16:00.477Z,9.78
2018-07-06T00:18:39.521Z,10.53
2018-07-06T00:21:18.445Z,9.33
2018-07-06T00:23:57.484Z,8.93
2018-07-06T00:26:36.694Z,12.25
2018-07-06T00:29:15.619Z,10.10
2018-07-06T00:32:11.792Z,11.73
2018-07-06T00:34:50.920Z,10.93
2018-07-06T00:37:29.922Z,11.78
2018-07-06T00:40:14.147Z,12.53
2018-07-06T00:42:53.223Z,16.25
2018-07-06T00:45:33.371Z,21.17
2018-07-06T00:48:12.394Z,19.52
2018-07-06T00:50:51.529Z,15.40
2018-07-06T00:53:30.565Z,18.00
2018-07-06T00:56:09.688Z,20.37
2018-07-06T00:58:48.702Z,18.98
2018-07-06T01:01:29.923Z,20.30
2018-07-06T01:04:08.987Z,23.73
2018-07-06T01:06:48.101Z,25.60
2018-07-06T01:09:28.201Z,27.82
2018-07-06T01:12:12.868Z,23.27
2018-07-06T01:14:52.819Z,22.93
2018-07-06T01:17:32.875Z,32.83
2018-07-06T01:20:12.907Z,26.57
2018-07-06T01:22:51.926Z,29.85
2018-07-06T01:25:41.326Z,34.92
2018-07-06T01:28:22.413Z,43.95
2018-07-06T01:31:06.123Z,52.65
2018-07-06T01:33:45.246Z,40.65
2018-07-06T01:36:24.377Z,43.60
2018-07-06T01:39:04.635Z,51.83
2018-07-06T01:41:43.725Z,61.70
2018-07-06T01:44:22.664Z,47.20
2018-07-06T01:47:02.702Z,35.30
2018-07-06T01:49:42.846Z,21.87
2018-07-06T01:55:41.230Z,21.02
2018-07-06T01:58:31.513Z,33.70
2018-07-06T02:01:13.215Z,24.90
2018-07-06T02:03:52.269Z,30.00
2018-07-06T02:07:10.832Z,41.35
2018-07-06T02:09:51.786Z,30.15
2018-07-06T02:12:39.039Z,28.75
2018-07-06T02:19:02.300Z,64.62
2018-07-06T02:21:52.844Z,30.45
2018-07-06T02:28:13.727Z,36.15
2018-07-06T02:30:52.630Z,28.47
2018-07-06T02:33:49.274Z,28.20
2018-07-06T02:36:28.306Z,39.38
2018-07-06T02:39:31.061Z,64.63
2018-07-06T02:42:32.743Z,77.92
2018-07-06T02:45:11.770Z,82.02
2018-07-06T03:24:27.408Z,106.92
2018-07-06T03:27:14.372Z,111.00
2018-07-06T03:29:53.543Z,146.83
2018-07-06T03:32:32.626Z,144.37
2018-07-06T03:35:11.548Z,170.87
2018-07-06T03:37:50.601Z,162.60
2018-07-06T03:40:29.589Z,135.73
2018-07-06T03:43:08.628Z,163.23
2018-07-06T03:45:47.558Z,183.57
2018-07-06T03:48:27.988Z,167.30
2018-07-06T03:51:07.657Z,229.03
2018-07-06T03:53:47.243Z,251.27
2018-07-06T03:56:26.589Z,243.30
2018-07-06T03:59:05.840Z,171.75
2018-07-06T04:01:45.882Z,162.70
2018-07-06T04:04:25.061Z,184.83
2018-07-06T04:07:04.011Z,155.10
2018-07-06T04:09:44.288Z,178.32
2018-07-06T04:12:23.392Z,149.53
2018-07-06T04:15:03.791Z,199.05
2018-07-06T04:17:43.093Z,212.40
2018-07-06T04:20:22.199Z,181.37
2018-07-06T04:23:01.556Z,156.67
2018-07-06T04:25:40.700Z,141.18
2018-07-06T04:28:19.819Z,114.17
2018-07-06T04:30:59.000Z,82.27
2018-07-06T04:33:38.184Z,64.60
2018-07-06T04:36:17.640Z,47.80
2018-07-06T04:38:56.770Z,46.28
2018-07-06T04:41:36.032Z,41.95
2018-07-06T04:44:15.185Z,36.80
2018-07-06T04:46:54.290Z,37.40
2018-07-06T04:49:33.502Z,34.58
2018-07-06T04:52:12.545Z,30.25
2018-07-06T04:54:51.620Z,29.42
2018-07-06T04:57:30.887Z,24.20
2018-07-06T05:00:09.917Z,33.75
2018-07-06T05:02:51.035Z,40.48
2018-07-06T05:05:30.151Z,35.17
2018-07-06T05:08:29.370Z,31.48
2018-07-06T05:11:08.402Z,37.33
2018-07-06T05:13:47.468Z,30.30
2018-07-06T05:16:26.617Z,28.70
2018-07-06T05:19:06.628Z,31.70
2018-07-06T05:21:45.703Z,33.23
2018-07-06T05:24:24.836Z,29.65
2018-07-06T05:27:04.845Z,31.35
2018-07-06T05:29:43.943Z,28.98
2018-07-06T05:32:22.967Z,32.95
2018-07-06T05:35:01.889Z,25.97
2018-07-06T05:37:42.058Z,27.15
2018-07-06T05:40:21.112Z,28.67
2018-07-06T05:43:00.031Z,26.23
2018-07-06T05:45:39.035Z,25.72
2018-07-06T05:48:33.833Z,22.98
2018-07-06T05:51:12.983Z,28.20
2018-07-06T05:53:52.020Z,24.90
2018-07-06T05:56:30.978Z,23.60
2018-07-06T05:59:10.001Z,24.12
2018-07-06T06:01:48.913Z,23.57
2018-07-06T06:04:27.938Z,24.85
2018-07-06T06:07:06.908Z,23.60
2018-07-06T06:09:34.657Z,23.62
2018-07-06T06:12:02.488Z,21.37
2018-07-06T06:14:30.215Z,22.00
2018-07-06T06:16:58.982Z,22.37
2018-07-06T06:19:26.734Z,22.90
2018-07-06T06:21:54.517Z,22.30
2018-07-06T06:24:22.322Z,20.45
2018-07-06T06:26:50.283Z,21.00
2018-07-06T06:29:18.261Z,20.00
2018-07-06T06:31:46.244Z,21.48
2018-07-06T06:34:14.230Z,19.87
2018-07-06T06:36:42.249Z,27.20
2018-07-06T06:39:10.172Z,22.32
2018-07-06T06:41:38.174Z,22.48
2018-07-06T06:44:06.109Z,23.18
2018-07-06T06:46:34.117Z,21.15
2018-07-06T06:49:01.967Z,22.22
2018-07-06T06:51:29.964Z,22.15
2018-07-06T06:53:58.977Z,22.27
2018-07-06T06:56:26.970Z,21.90
2018-07-06T06:58:54.979Z,22.77
2018-07-06T07:01:22.985Z,22.52
2018-07-06T07:03:51.053Z,22.75
2018-07-06T07:06:19.038Z,21.10
2018-07-06T07:08:47.011Z,20.82
2018-07-06T07:11:14.936Z,18.55
2018-07-06T07:13:43.050Z,16.85
2018-07-06T07:16:10.923Z,16.35
2018-07-06T07:18:38.981Z,16.73
2018-07-06T07:21:06.911Z,17.15
2018-07-06T07:23:35.029Z,16.93
2018-07-06T07:26:03.009Z,18.12
2018-07-06T07:28:31.035Z,15.13
2018-07-06T07:30:58.968Z,15.43
2018-07-06T07:33:27.886Z,17.00
2018-07-06T07:35:56.053Z,14.35
2018-07-06T07:38:25.010Z,14.15
2018-07-06T07:40:52.852Z,14.70
2018-07-06T07:43:20.778Z,13.32
2018-07-06T07:45:48.741Z,15.60
2018-07-06T07:48:16.561Z,15.28
2018-07-06T07:50:54.495Z,14.80
2018-07-06T07:53:33.564Z,14.00
2018-07-06T07:56:01.455Z,12.70
2018-07-06T07:58:29.307Z,13.62
2018-07-06T08:00:57.256Z,14.05
2018-07-06T08:03:25.975Z,13.80
2018-07-06T08:05:53.880Z,12.98
2018-07-06T08:08:21.808Z,11.93
2018-07-06T08:10:49.715Z,12.55
2018-07-06T08:13:17.577Z,13.35
2018-07-06T08:15:45.500Z,13.35
2018-07-06T08:18:13.752Z,12.35
2018-07-06T08:20:41.633Z,13.22
2018-07-06T08:23:09.475Z,13.93
2018-07-06T08:25:37.391Z,11.65
2018-07-06T08:28:05.230Z,12.70
2018-07-06T08:30:33.153Z,14.15
2018-07-06T08:33:00.951Z,16.12
2018-07-06T08:35:39.925Z,12.18
2018-07-06T08:38:08.820Z,14.07
2018-07-06T08:40:36.640Z,13.13
2018-07-06T08:43:05.424Z,12.13
2018-07-06T08:45:34.103Z,11.30
2018-07-06T08:48:01.951Z,12.90
2018-07-06T08:50:31.066Z,13.45
2018-07-06T08:52:58.958Z,12.40
2018-07-06T08:55:27.308Z,13.08
2018-07-06T08:57:56.220Z,13.28
2018-07-06T09:00:24.048Z,12.05
2018-07-06T09:02:51.902Z,13.78
2018-07-06T09:05:19.726Z,11.22
2018-07-06T09:07:47.539Z,12.43
2018-07-06T09:10:15.363Z,12.45
2018-07-06T09:12:43.201Z,13.62
2018-07-06T09:15:11.973Z,11.03
2018-07-06T09:17:40.432Z,13.03
2018-07-06T09:20:08.542Z,9.70
2018-07-06T09:22:36.259Z,8.98
2018-07-06T09:25:05.605Z,11.20
2018-07-06T09:27:33.640Z,9.28
2018-07-06T09:30:02.000Z,8.70
2018-07-06T09:32:41.950Z,8.63
2018-07-06T09:35:09.820Z,9.75
2018-07-06T09:37:37.578Z,11.40
2018-07-06T09:40:05.447Z,8.25
2018-07-06T09:42:33.856Z,8.08
2018-07-06T09:45:01.819Z,11.40
2018-07-06T09:47:29.653Z,7.87
2018-07-06T09:49:57.530Z,9.35
2018-07-06T09:52:25.298Z,7.60
2018-07-06T09:54:53.156Z,8.68
2018-07-06T09:57:20.949Z,8.45
2018-07-06T09:59:48.705Z,6.85
2018-07-06T10:02:16.542Z,8.03
2018-07-06T10:04:52.226Z,7.72
2018-07-06T10:08:00.121Z,8.03
2018-07-06T10:10:27.933Z,10.13
2018-07-06T10:12:55.835Z,7.72
2018-07-06T10:15:23.606Z,7.58
2018-07-06T10:17:51.387Z,6.42
2018-07-06T10:20:20.298Z,8.18
2018-07-06T10:22:48.144Z,5.97
2018-07-06T10:25:16.070Z,7.80
2018-07-06T10:27:51.775Z,6.22
2018-07-06T10:30:29.122Z,6.10
2018-07-06T10:32:56.976Z,5.97
2018-07-06T10:35:54.188Z,6.45
2018-07-06T10:38:21.989Z,5.70
2018-07-06T10:40:49.788Z,5.05
2018-07-06T10:43:17.571Z,6.50
2018-07-06T10:45:45.367Z,4.17
2018-07-06T10:48:13.163Z,5.62
2018-07-06T10:50:40.946Z,4.25
2018-07-06T10:53:08.700Z,6.15
2018-07-06T10:55:36.467Z,4.30
2018-07-06T10:58:04.479Z,5.75
2018-07-06T11:00:32.207Z,6.10
2018-07-06T11:02:59.966Z,7.10
2018-07-06T11:05:27.895Z,4.85
2018-07-06T11:07:55.625Z,4.95
2018-07-06T11:10:23.405Z,6.33
2018-07-06T11:12:51.159Z,3.95
2018-07-06T11:15:18.909Z,6.80
2018-07-06T11:17:46.715Z,4.78
2018-07-06T11:20:14.569Z,4.53
2018-07-06T11:22:42.359Z,4.33
2018-07-06T11:25:10.213Z,4.70
2018-07-06T11:27:37.946Z,5.72
2018-07-06T11:30:06.805Z,4.35
2018-07-06T11:32:34.604Z,4.60
2018-07-06T11:35:02.437Z,4.90
2018-07-06T11:37:51.104Z,4.47
2018-07-06T11:40:19.078Z,7.95
2018-07-06T11:42:47.002Z,7.35
2018-07-06T11:45:14.989Z,7.30
2018-07-06T11:47:42.913Z,8.55
2018-07-06T11:50:10.900Z,6.62
2018-07-06T11:52:39.821Z,5.87
2018-07-06T11:55:07.794Z,6.22
2018-07-06T11:57:35.673Z,9.00
2018-07-06T12:00:03.702Z,7.15
2018-07-06T12:02:31.648Z,5.55
2018-07-06T12:04:59.592Z,5.08
2018-07-06T12:07:27.604Z,4.80
2018-07-06T12:09:55.550Z,3.60
2018-07-06T12:12:23.551Z,4.22
2018-07-06T12:14:51.464Z,4.75
2018-07-06T12:17:19.406Z,7.15
2018-07-06T12:19:47.282Z,5.60
2018-07-06T12:22:15.221Z,11.30
2018-07-06T12:24:43.107Z,7.28
2018-07-06T12:27:11.017Z,6.40
2018-07-06T12:29:38.948Z,7.25
2018-07-06T12:32:07.716Z,6.75
2018-07-06T12:34:35.610Z,6.40
2018-07-06T12:37:03.647Z,8.10
2018-07-06T12:39:31.593Z,8.85
2018-07-06T12:41:59.484Z,6.60
2018-07-06T12:44:27.242Z,5.03
2018-07-06T12:46:55.084Z,5.97
2018-07-06T12:49:23.825Z,4.22
2018-07-06T12:51:51.968Z,5.10
2018-07-06T12:54:19.904Z,6.92
2018-07-06T12:56:47.740Z,4.67
2018-07-06T12:59:15.597Z,3.65
2018-07-06T13:01:43.431Z,3.58
2018-07-06T13:04:11.233Z,6.47
2018-07-06T13:06:39.040Z,5.58
2018-07-06T13:09:07.059Z,4.80
2018-07-06T13:11:34.875Z,4.33
2018-07-06T13:14:02.678Z,4.80
2018-07-06T13:16:30.464Z,3.77
2018-07-06T13:18:59.308Z,3.85
2018-07-06T13:21:27.102Z,4.10
2018-07-06T13:23:55.887Z,4.60
2018-07-06T13:26:23.668Z,3.95
2018-07-06T13:28:51.827Z,5.03
2018-07-06T13:31:19.658Z,4.08
2018-07-06T13:33:47.506Z,3.55
2018-07-06T13:36:15.224Z,7.20
2018-07-06T13:38:43.035Z,4.62
2018-07-06T13:41:10.788Z,4.28
2018-07-06T13:43:38.557Z,6.50
2018-07-06T13:46:06.386Z,4.83
2018-07-06T13:48:34.175Z,4.15
2018-07-06T13:51:01.988Z,5.60
2018-07-06T13:53:29.761Z,4.50
2018-07-06T13:55:58.837Z,4.42
2018-07-06T13:58:26.681Z,4.30
2018-07-06T14:00:55.483Z,3.98
2018-07-06T14:03:23.369Z,4.53
2018-07-06T14:05:51.287Z,3.27
2018-07-06T14:08:19.062Z,4.37
2018-07-06T14:11:07.887Z,2.85
2018-07-06T14:13:35.716Z,3.62
2018-07-06T14:16:03.554Z,4.78
2018-07-06T14:18:31.392Z,3.92
2018-07-06T14:20:59.276Z,3.17
2018-07-06T14:23:27.277Z,2.40
2018-07-06T14:25:55.149Z,3.85
2018-07-06T14:28:23.001Z,3.77
2018-07-06T14:30:51.814Z,6.15
2018-07-06T14:33:22.678Z,5.05
2018-07-06T14:35:50.714Z,5.17
2018-07-06T14:38:18.575Z,5.62
2018-07-06T14:40:46.423Z,4.92
2018-07-06T14:43:14.267Z,10.70
2018-07-06T14:45:49.411Z,2.90
2018-07-06T14:48:17.628Z,1.72
2018-07-06T14:50:45.879Z,5.22
2018-07-06T14:53:13.778Z,3.22
2018-07-06T14:55:41.647Z,3.37
2018-07-06T14:58:09.479Z,3.08
2018-07-06T15:00:37.283Z,3.50
2018-07-06T15:03:05.258Z,2.85
2018-07-06T15:05:33.036Z,3.15
2018-07-06T15:08:00.891Z,5.22
2018-07-06T15:10:29.692Z,3.70
2018-07-06T15:12:57.575Z,2.90
2018-07-06T15:15:25.346Z,1.57
2018-07-06T15:17:53.088Z,3.60
2018-07-06T15:20:20.885Z,5.60
2018-07-06T15:22:48.655Z,3.10
2018-07-06T15:25:16.484Z,2.30
2018-07-06T15:27:44.273Z,3.08
2018-07-06T15:30:12.040Z,3.10
2018-07-06T15:32:47.698Z,3.12
2018-07-06T15:35:15.567Z,3.37
2018-07-06T15:37:43.520Z,2.52
2018-07-06T15:40:11.529Z,5.37
2018-07-06T15:42:39.462Z,3.90
2018-07-06T15:45:07.429Z,4.70
2018-07-06T15:47:35.339Z,7.47
2018-07-06T15:50:03.285Z,6.28
2018-07-06T15:52:31.162Z,5.47
2018-07-06T15:54:59.110Z,11.57
2018-07-06T15:57:27.093Z,7.65
2018-07-06T15:59:55.009Z,9.08
2018-07-06T16:02:22.885Z,4.42
2018-07-06T16:04:50.808Z,7.67
2018-07-06T16:07:18.684Z,6.83
2018-07-06T16:09:46.617Z,6.28
2018-07-06T16:12:14.517Z,5.53
2018-07-06T16:14:42.412Z,6.95
2018-07-06T16:17:10.320Z,3.77
2018-07-06T16:19:38.201Z,3.22
2018-07-06T16:22:06.303Z,8.10
2018-07-06T16:24:34.175Z,5.50
2018-07-06T16:27:02.056Z,3.85
2018-07-06T16:29:29.950Z,5.70
2018-07-06T16:31:57.864Z,4.42
2018-07-06T16:34:25.727Z,4.37
2018-07-06T16:36:53.565Z,4.20
2018-07-06T16:39:21.408Z,4.35
2018-07-06T16:41:49.185Z,10.28
2018-07-06T16:44:16.982Z,5.75
2018-07-06T16:46:44.775Z,5.72
2018-07-06T16:49:12.599Z,4.60
2018-07-06T16:51:40.429Z,5.53
2018-07-06T16:54:08.246Z,2.50
2018-07-06T16:56:36.084Z,3.95
2018-07-06T16:59:03.861Z,4.58
2018-07-06T17:01:31.651Z,3.08
2018-07-06T17:04:37.274Z,5.67
2018-07-06T17:08:07.820Z,4.40
2018-07-06T17:10:35.865Z,3.27
2018-07-06T17:13:03.780Z,3.08
2018-07-06T17:15:31.586Z,4.65
2018-07-06T17:17:59.422Z,3.75
2018-07-06T17:20:27.338Z,3.77
2018-07-06T17:22:56.207Z,5.20
2018-07-06T17:25:24.034Z,4.85
2018-07-06T17:27:51.910Z,5.90
2018-07-06T17:30:19.728Z,6.47
2018-07-06T17:35:48.344Z,3.92
2018-07-06T17:38:16.201Z,5.42
2018-07-06T17:40:44.029Z,5.37
2018-07-06T17:47:46.470Z,3.45
2018-07-06T17:50:14.395Z,3.27
2018-07-06T17:52:42.232Z,4.42
2018-07-06T17:55:10.044Z,5.75
2018-07-06T17:58:10.572Z,4.20
2018-07-06T18:00:38.497Z,4.03
2018-07-06T18:03:06.320Z,4.45
2018-07-06T18:05:34.347Z,4.25
2018-07-06T18:08:02.213Z,4.40
2018-07-06T18:10:30.053Z,3.62
2018-07-06T18:12:57.881Z,5.90
2018-07-06T18:15:25.829Z,4.15
2018-07-06T18:17:53.696Z,6.10
2018-07-06T18:20:21.588Z,5.20
2018-07-06T18:22:49.725Z,4.78
2018-07-06T18:25:17.611Z,5.33
2018-07-06T18:27:45.478Z,4.65
2018-07-06T18:30:13.487Z,4.28
2018-07-06T18:32:42.333Z,6.58
2018-07-06T18:35:10.204Z,4.67
2018-07-06T18:37:48.343Z,6.25
2018-07-06T18:40:16.309Z,6.28
2018-07-06T18:42:44.420Z,5.15
2018-07-06T18:45:12.208Z,6.30
2018-07-06T18:47:40.101Z,5.03
2018-07-06T18:50:07.875Z,7.30
2018-07-06T18:52:35.695Z,5.92
2018-07-06T18:55:03.578Z,9.78
2018-07-06T18:57:32.470Z,6.92
2018-07-06T19:00:00.335Z,8.45
2018-07-06T19:02:28.250Z,6.20
2018-07-06T19:04:56.060Z,5.80
2018-07-06T19:07:24.910Z,10.38
2018-07-06T19:09:59.970Z,9.95
2018-07-06T19:12:36.392Z,6.42
2018-07-06T19:15:04.319Z,5.85
2018-07-06T19:17:32.255Z,7.45
2018-07-06T19:20:00.148Z,9.20
2018-07-06T19:22:28.243Z,7.95
2018-07-06T19:24:56.129Z,6.72
2018-07-06T19:27:24.183Z,10.35
2018-07-06T19:29:52.043Z,9.30
2018-07-06T19:32:20.002Z,6.67
2018-07-06T19:34:47.927Z,8.48
2018-07-06T19:37:15.836Z,7.10
2018-07-06T19:39:43.719Z,7.45
2018-07-06T19:42:11.714Z,13.53
2018-07-06T19:44:39.696Z,7.62
2018-07-06T19:47:07.593Z,10.75
2018-07-06T19:49:35.491Z,7.53
2018-07-06T19:52:03.455Z,9.33
2018-07-06T19:54:31.391Z,12.40
2018-07-06T19:56:59.394Z,9.95
2018-07-06T19:59:27.311Z,9.65
2018-07-06T20:01:55.341Z,10.15
2018-07-06T20:04:23.243Z,11.45
2018-07-06T20:06:51.154Z,15.38
2018-07-06T20:09:19.052Z,12.35
2018-07-06T20:11:47.064Z,12.43
2018-07-06T20:14:14.953Z,11.43
2018-07-06T20:16:46.091Z,12.13
2018-07-06T20:19:13.873Z,11.60
2018-07-06T20:21:41.691Z,12.58
2018-07-06T20:24:09.465Z,11.40
2018-07-06T20:26:37.283Z,13.00
2018-07-06T20:29:05.259Z,12.82
2018-07-06T20:31:33.018Z,12.28
2018-07-06T20:34:00.841Z,9.90
2018-07-06T20:36:29.365Z,10.10
2018-07-06T20:38:57.269Z,11.73
2018-07-06T20:41:25.065Z,11.78
2018-07-06T20:43:53.073Z,8.98
2018-07-06T20:46:20.909Z,12.43
2018-07-06T20:48:48.735Z,14.70
2018-07-06T20:51:16.578Z,12.78
2018-07-06T20:53:44.411Z,17.32
2018-07-06T20:56:12.191Z,14.78
2018-07-06T20:58:40.016Z,23.55
2018-07-06T21:01:20.384Z,17.95
2018-07-06T21:03:48.233Z,15.75
2018-07-06T21:06:16.062Z,18.02
2018-07-06T21:08:43.943Z,18.40
2018-07-06T21:11:11.808Z,16.35
2018-07-06T21:13:39.630Z,20.17
2018-07-06T21:16:07.475Z,16.45
2018-07-06T21:18:35.280Z,16.37
2018-07-06T21:21:24.025Z,19.25
2018-07-06T21:23:51.981Z,16.90
2018-07-06T21:26:19.957Z,15.35
2018-07-06T21:28:47.966Z,16.30
2018-07-06T21:31:15.922Z,13.95
2018-07-06T21:33:43.883Z,14.43
2018-07-06T21:36:11.877Z,14.63
2018-07-06T21:38:39.792Z,14.93
2018-07-06T21:41:07.860Z,16.73
2018-07-06T21:43:35.890Z,14.35
2018-07-06T21:46:03.853Z,14.87
2018-07-06T21:48:31.825Z,14.90
2018-07-06T21:50:59.782Z,15.85
2018-07-06T21:53:27.686Z,18.30
2018-07-06T21:55:55.700Z,11.57
2018-07-06T21:58:23.657Z,8.80
2018-07-06T22:00:51.607Z,10.03
2018-07-06T22:03:19.561Z,8.53
2018-07-06T22:05:47.619Z,11.33
2018-07-06T22:08:15.558Z,9.90
2018-07-06T22:10:43.515Z,12.07
2018-07-06T22:13:11.437Z,9.70
2018-07-06T22:15:46.833Z,11.28
2018-07-06T22:18:16.110Z,12.47
2018-07-06T22:20:45.080Z,11.05
2018-07-06T22:23:13.470Z,18.05
2018-07-06T22:25:41.616Z,11.55
2018-07-06T22:28:09.419Z,17.32
2018-07-06T22:30:37.302Z,12.53
2018-07-06T22:33:05.282Z,16.42
2018-07-06T22:35:33.106Z,16.32
2018-07-06T22:38:00.915Z,20.82
2018-07-06T22:40:28.672Z,21.33
2018-07-06T22:42:56.577Z,21.65
2018-07-06T22:45:24.375Z,22.25
2018-07-06T22:47:52.293Z,22.07
2018-07-06T22:50:20.115Z,22.80
2018-07-06T22:52:47.932Z,28.07
2018-07-06T22:55:15.716Z,24.85
2018-07-06T22:57:43.502Z,25.97
2018-07-06T23:00:11.313Z,30.90
2018-07-06T23:02:39.091Z,24.67
2018-07-06T23:05:16.963Z,27.82
2018-07-06T23:07:44.792Z,29.48
2018-07-06T23:10:12.994Z,31.02
2018-07-06T23:12:40.909Z,33.95
2018-07-06T23:15:08.691Z,28.98
2018-07-06T23:18:11.672Z,36.13
2018-07-06T23:20:39.573Z,37.65
2018-07-06T23:23:17.264Z,36.33
2018-07-06T23:25:46.311Z,48.33
2018-07-06T23:28:18.205Z,38.35
2018-07-06T23:30:46.223Z,50.45
2018-07-06T23:33:14.330Z,48.95
2018-07-06T23:35:42.326Z,47.08
2018-07-06T23:38:10.351Z,58.55
2018-07-06T23:40:38.262Z,56.15
2018-07-06T23:43:06.255Z,56.60
2018-07-06T23:45:34.172Z,59.98
2018-07-06T23:48:03.150Z,47.33
2018-07-06T23:50:31.055Z,46.33
2018-07-06T23:52:59.029Z,47.55
2018-07-06T23:55:26.912Z,42.83
2018-07-06T23:57:54.887Z,47.90
